Time;durP1;ratioP1;P1;durP2;ratioP2;P2;SDS_P1;SDS_P2;PMS_P1;PMS_P2;Temp;Humidity;BMP_temperature;BMP_pressure;BME280_temperature;BME280_humidity;BME280_pressure;Samples;Min_cycle;Max_cycle;Signal;HPM_P1;HPM_P2
2022/03/20 00:01:59;;;;;;;;;;;6.90;50.80;;;;;;8408186;28;20019;-70
2022/03/20 00:06:01;;;;;;;;;;;6.80;51.90;;;;;;8404002;28;20027;-70
2022/03/20 00:10:04;;;;;;;;;;;6.80;51.40;;;;;;8413766;28;19984;-70
2022/03/20 00:14:06;;;;;;;;;;;6.80;51.80;;;;;;8420333;28;19932;-70
2022/03/20 00:18:08;;;;;;;;;;;6.70;52.60;;;;;;8416509;28;19978;-69
2022/03/20 00:22:11;;;;;;;;;;;6.60;52.30;;;;;;8423663;28;20007;-70
2022/03/20 00:26:15;;;;;;;;;;;6.50;52.20;;;;;;8425320;28;19932;-70
2022/03/20 00:30:17;;;;;;;;;;;6.50;53.90;;;;;;8423093;28;20004;-70
2022/03/20 00:34:19;;;;;;;;;;;6.50;53.60;;;;;;8432162;28;19931;-70
2022/03/20 00:38:20;;;;;;;;;;;6.40;53.70;;;;;;8423891;28;19939;-70
2022/03/20 00:42:22;;;;;;;;;;;6.30;54.10;;;;;;8419831;28;20723;-70
2022/03/20 00:46:23;;;;;;;;;;;6.30;54.90;;;;;;8423485;28;19928;-70
2022/03/20 00:50:25;;;;;;;;;;;6.30;54.20;;;;;;8413172;28;19925;-70
2022/03/20 00:54:27;;;;;;;;;;;6.30;54.80;;;;;;8423932;28;19975;-70
2022/03/20 00:58:28;;;;;;;;;;;6.20;54.00;;;;;;8418181;28;19971;-70
2022/03/20 01:02:35;;;;;;;;;;;6.10;54.50;;;;;;8425575;28;19928;-70
2022/03/20 01:06:37;;;;;;;;;;;6.10;54.50;;;;;;8421473;28;19924;-70
2022/03/20 01:10:39;;;;;;;;;;;6.10;56.20;;;;;;8430805;28;19971;-70
2022/03/20 01:14:40;;;;;;;;;;;6.00;56.20;;;;;;8417685;28;19972;-69
2022/03/20 01:18:42;;;;;;;;;;;6.00;56.40;;;;;;8429399;28;20391;-69
2022/03/20 01:22:45;;;;;;;;;;;6.00;55.80;;;;;;8419058;28;19928;-69
2022/03/20 01:26:50;;;;;;;;;;;5.90;55.60;;;;;;8402621;28;20028;-69
2022/03/20 01:30:53;;;;;;;;;;;5.90;55.30;;;;;;8425498;28;20243;-69
2022/03/20 01:34:54;;;;;;;;;;;5.80;56.20;;;;;;8427772;28;19973;-69
2022/03/20 01:38:56;;;;;;;;;;;5.80;56.20;;;;;;8405990;28;19968;-69
2022/03/20 01:42:58;;;;;;;;;;;5.70;57.40;;;;;;8415503;28;20295;-69
2022/03/20 01:47:00;;;;;;;;;;;5.60;57.70;;;;;;8420248;28;19971;-70
2022/03/20 01:51:02;;;;;;;;;;;5.60;57.50;;;;;;8414129;28;19932;-70
2022/03/20 01:55:04;;;;;;;;;;;5.50;57.60;;;;;;8399781;28;20003;-70
2022/03/20 01:59:05;;;;;;;;;;;5.50;58.30;;;;;;8420200;28;19963;-70
2022/03/20 02:03:07;;;;;;;;;;;5.40;58.00;;;;;;8421931;28;19975;-70
2022/03/20 02:07:09;;;;;;;;;;;5.40;58.10;;;;;;8426639;28;19928;-70
2022/03/20 02:11:10;;;;;;;;;;;5.40;58.20;;;;;;8395056;28;19943;-70
2022/03/20 02:15:13;;;;;;;;;;;5.30;59.00;;;;;;8418287;28;20358;-70
2022/03/20 02:19:14;;;;;;;;;;;5.30;59.90;;;;;;8429109;28;20391;-70
2022/03/20 02:23:17;;;;;;;;;;;5.20;60.70;;;;;;8418595;28;19933;-70
2022/03/20 02:27:27;;;;;;;;;;;5.20;60.80;;;;;;8421915;28;20391;-70
2022/03/20 02:31:28;;;;;;;;;;;5.10;61.10;;;;;;8423604;28;20272;-70
2022/03/20 02:35:31;;;;;;;;;;;5.10;60.90;;;;;;8422833;28;19928;-70
2022/03/20 02:39:33;;;;;;;;;;;5.10;61.40;;;;;;8408377;28;19935;-70
2022/03/20 02:43:36;;;;;;;;;;;5.00;60.80;;;;;;8418744;28;19951;-69
2022/03/20 02:47:45;;;;;;;;;;;5.00;62.60;;;;;;8417487;28;19924;-70
2022/03/20 02:51:46;;;;;;;;;;;5.00;61.90;;;;;;8411720;28;19951;-70
2022/03/20 02:55:48;;;;;;;;;;;4.90;61.90;;;;;;8422377;28;20299;-70
2022/03/20 02:59:50;;;;;;;;;;;4.90;63.90;;;;;;8422258;28;19970;-69
2022/03/20 03:03:53;;;;;;;;;;;4.90;63.10;;;;;;8417450;28;19968;-69
2022/03/20 03:12:16;;;;;;;;;;;4.80;63.30;;;;;;8418826;28;19931;-69
2022/03/20 03:16:18;;;;;;;;;;;4.80;64.10;;;;;;8415072;28;19967;-69
2022/03/20 03:20:19;;;;;;;;;;;4.70;64.20;;;;;;8427686;28;19983;-70
2022/03/20 03:24:21;;;;;;;;;;;4.70;64.60;;;;;;8423262;28;20383;-70
2022/03/20 03:28:28;;;;;;;;;;;4.70;65.70;;;;;;8418463;28;19924;-70
2022/03/20 03:32:30;;;;;;;;;;;4.60;65.20;;;;;;8423449;28;20399;-70
2022/03/20 03:36:32;;;;;;;;;;;4.60;67.10;;;;;;8395980;28;19924;-70
2022/03/20 03:40:33;;;;;;;;;;;4.60;65.40;;;;;;8401995;28;19959;-70
2022/03/20 03:44:35;;;;;;;;;;;4.60;65.80;;;;;;8420525;28;20399;-69
2022/03/20 03:48:36;;;;;;;;;;;4.50;65.90;;;;;;8422161;28;19978;-69
2022/03/20 03:52:38;;;;;;;;;;;4.50;66.00;;;;;;8420774;28;19975;-70
2022/03/20 03:56:40;;;;;;;;;;;4.50;66.30;;;;;;8422354;28;19933;-70
2022/03/20 04:00:43;;;;;;;;;;;4.40;66.80;;;;;;8414205;28;19975;-70
2022/03/20 04:04:46;;;;;;;;;;;4.40;67.30;;;;;;8409742;28;20299;-69
2022/03/20 04:08:49;;;;;;;;;;;4.30;66.80;;;;;;8424978;28;19940;-69
2022/03/20 04:12:50;;;;;;;;;;;4.30;67.20;;;;;;8425924;28;21755;-69
2022/03/20 04:16:54;;;;;;;;;;;4.30;66.60;;;;;;8425193;28;19959;-70
2022/03/20 04:20:56;;;;;;;;;;;4.30;67.30;;;;;;8422366;28;20006;-70
2022/03/20 04:24:57;;;;;;;;;;;4.20;67.20;;;;;;8425388;28;20026;-70
2022/03/20 04:28:59;;;;;;;;;;;4.20;67.00;;;;;;8398941;28;19924;-70
2022/03/20 04:33:01;;;;;;;;;;;4.20;67.30;;;;;;8427880;28;19982;-70
2022/03/20 04:37:05;;;;;;;;;;;4.20;67.00;;;;;;8424897;28;19927;-69
2022/03/20 04:41:07;;;;;;;;;;;4.10;67.50;;;;;;8423658;28;19987;-69
2022/03/20 04:45:10;;;;;;;;;;;4.10;67.20;;;;;;8420947;28;19942;-69
2022/03/20 05:02:13;;;;;;;;;;;4.00;68.90;;;;;;8412900;28;20433;-70
2022/03/20 05:06:14;;;;;;;;;;;4.00;69.20;;;;;;8414258;28;19935;-70
2022/03/20 05:14:36;;;;;;;;;;;4.10;69.30;;;;;;8415388;28;20320;-70
2022/03/20 05:18:38;;;;;;;;;;;4.10;69.30;;;;;;8414655;28;19959;-70
2022/03/20 05:22:39;;;;;;;;;;;4.10;69.60;;;;;;8410713;28;20424;-70
2022/03/20 05:26:41;;;;;;;;;;;4.10;69.90;;;;;;8402626;28;19971;-69
2022/03/20 05:30:43;;;;;;;;;;;4.10;71.30;;;;;;8413415;28;19979;-70
2022/03/20 05:34:45;;;;;;;;;;;4.20;72.10;;;;;;8400631;28;19951;-70
2022/03/20 05:38:46;;;;;;;;;;;4.30;70.70;;;;;;8424212;28;20007;-70
2022/03/20 05:42:49;;;;;;;;;;;4.30;72.80;;;;;;8424996;28;19924;-70
2022/03/20 05:46:51;;;;;;;;;;;4.40;71.00;;;;;;8418526;28;19924;-70
2022/03/20 05:50:53;;;;;;;;;;;4.40;70.90;;;;;;8419379;28;20015;-69
2022/03/20 05:54:55;;;;;;;;;;;4.50;71.50;;;;;;8406012;28;19932;-69
2022/03/20 05:58:57;;;;;;;;;;;4.50;71.20;;;;;;8414863;28;19966;-69
2022/03/20 06:03:01;;;;;;;;;;;4.50;71.70;;;;;;8420263;28;20352;-69
2022/03/20 06:07:03;;;;;;;;;;;4.60;71.60;;;;;;8419889;28;20290;-69
2022/03/20 06:11:04;;;;;;;;;;;4.60;71.20;;;;;;8413689;28;19971;-70
2022/03/20 06:15:08;;;;;;;;;;;4.70;72.30;;;;;;8424624;28;20294;-70
2022/03/20 06:19:09;;;;;;;;;;;4.70;72.40;;;;;;8415869;28;19959;-70
2022/03/20 06:23:11;;;;;;;;;;;4.80;71.40;;;;;;8417582;28;19928;-70
2022/03/20 06:27:15;;;;;;;;;;;4.90;71.00;;;;;;8422365;28;20302;-69
2022/03/20 06:31:19;;;;;;;;;;;4.90;71.80;;;;;;8405074;28;19983;-70
2022/03/20 06:35:30;;;;;;;;;;;4.90;72.00;;;;;;8417717;28;19924;-69
2022/03/20 06:39:32;;;;;;;;;;;5.00;71.20;;;;;;8410204;28;19943;-70
2022/03/20 06:43:37;;;;;;;;;;;5.00;71.40;;;;;;8423445;28;19935;-70
2022/03/20 06:47:40;;;;;;;;;;;5.00;70.90;;;;;;8408173;28;19966;-70
2022/03/20 06:51:42;;;;;;;;;;;5.00;71.30;;;;;;8396533;28;20021;-70
2022/03/20 06:55:44;;;;;;;;;;;5.00;71.70;;;;;;8418381;28;20015;-67
2022/03/20 06:59:46;;;;;;;;;;;5.00;71.60;;;;;;8416114;28;20304;-67
2022/03/20 07:03:48;;;;;;;;;;;5.10;71.50;;;;;;8409925;28;20038;-67
2022/03/20 07:07:50;;;;;;;;;;;5.20;71.70;;;;;;8407669;28;20011;-67
2022/03/20 07:11:52;;;;;;;;;;;5.30;70.60;;;;;;8419655;28;19979;-67
2022/03/20 07:15:56;;;;;;;;;;;5.40;71.20;;;;;;8416041;28;19972;-67
2022/03/20 07:19:58;;;;;;;;;;;5.50;70.70;;;;;;8413807;28;19947;-67
2022/03/20 07:24:01;;;;;;;;;;;5.50;70.10;;;;;;8420588;28;19935;-67
2022/03/20 07:32:23;;;;;;;;;;;5.70;70.00;;;;;;8412852;28;19928;-67
2022/03/20 07:36:24;;;;;;;;;;;5.80;70.30;;;;;;8406666;28;20384;-67
2022/03/20 07:40:26;;;;;;;;;;;5.80;70.20;;;;;;8428475;28;19924;-67
2022/03/20 07:44:31;;;;;;;;;;;6.00;69.90;;;;;;8414474;28;20310;-67
2022/03/20 07:48:34;;;;;;;;;;;6.10;70.70;;;;;;8427842;28;20561;-67
2022/03/20 07:52:36;;;;;;;;;;;6.10;69.80;;;;;;8426735;28;20011;-67
2022/03/20 07:56:38;;;;;;;;;;;6.10;70.40;;;;;;8436221;28;19970;-67
2022/03/20 08:00:39;;;;;;;;;;;6.00;69.70;;;;;;8425160;28;19931;-67
2022/03/20 08:04:41;;;;;;;;;;;6.10;70.00;;;;;;8425274;28;19932;-67
2022/03/20 08:08:45;;;;;;;;;;;6.10;70.60;;;;;;8428209;28;19986;-67
2022/03/20 08:12:47;;;;;;;;;;;6.40;71.00;;;;;;8423983;28;19924;-67
2022/03/20 08:16:50;;;;;;;;;;;6.60;70.30;;;;;;8431864;28;19990;-67
2022/03/20 08:20:51;;;;;;;;;;;6.60;69.80;;;;;;8425446;28;19967;-67
2022/03/20 08:24:53;;;;;;;;;;;6.70;70.40;;;;;;8428168;28;19957;-67
2022/03/20 08:28:55;;;;;;;;;;;6.80;69.70;;;;;;8425442;28;19947;-67
2022/03/20 08:32:56;;;;;;;;;;;6.90;69.00;;;;;;8423084;28;19936;-67
2022/03/20 08:36:58;;;;;;;;;;;6.80;68.70;;;;;;8414238;28;19967;-67
2022/03/20 08:41:00;;;;;;;;;;;6.80;68.50;;;;;;8417086;28;19968;-67
2022/03/20 08:45:03;;;;;;;;;;;6.70;68.40;;;;;;8404317;28;20441;-67
2022/03/20 08:49:07;;;;;;;;;;;6.80;68.70;;;;;;8421406;28;20015;-67
2022/03/20 08:53:09;;;;;;;;;;;6.90;68.70;;;;;;8415533;28;20057;-67
2022/03/20 08:57:10;;;;;;;;;;;7.00;68.60;;;;;;8424960;28;19976;-67
2022/03/20 09:01:12;;;;;;;;;;;7.00;68.70;;;;;;8406948;28;19931;-67
2022/03/20 09:05:14;;;;;;;;;;;7.10;68.50;;;;;;8426538;28;19935;-67
2022/03/20 09:09:16;;;;;;;;;;;7.10;68.20;;;;;;8422324;28;19960;-67
2022/03/20 09:13:18;;;;;;;;;;;7.00;67.80;;;;;;8408079;28;20000;-67
2022/03/20 09:21:39;;;;;;;;;;;6.90;67.50;;;;;;8428922;28;19971;-67
2022/03/20 09:25:41;;;;;;;;;;;6.80;67.30;;;;;;8408731;28;19956;-67
2022/03/20 09:29:43;;;;;;;;;;;6.90;67.20;;;;;;8425934;28;20411;-67
2022/03/20 09:33:44;;;;;;;;;;;6.80;67.00;;;;;;8411840;28;19950;-67
2022/03/20 09:37:46;;;;;;;;;;;6.80;66.80;;;;;;8398124;28;19931;-67
2022/03/20 09:41:48;;;;;;;;;;;6.80;66.60;;;;;;8403944;28;19955;-68
2022/03/20 09:45:52;;;;;;;;;;;6.80;66.60;;;;;;8388953;28;19932;-67
2022/03/20 09:49:56;;;;;;;;;;;6.90;66.80;;;;;;8401785;28;19928;-67
2022/03/20 09:54:02;;;;;;;;;;;7.00;66.90;;;;;;8411370;28;19931;-67
2022/03/20 09:58:03;;;;;;;;;;;7.10;67.00;;;;;;8398528;28;19963;-67
2022/03/20 10:02:06;;;;;;;;;;;7.30;67.00;;;;;;8397095;28;20279;-67
2022/03/20 10:06:14;;;;;;;;;;;7.30;67.00;;;;;;8398833;28;19969;-67
2022/03/20 10:10:23;;;;;;;;;;;7.60;68.00;;;;;;8414603;28;19928;-67
2022/03/20 10:14:26;;;;;;;;;;;8.20;69.50;;;;;;8422572;28;19924;-67
2022/03/20 10:18:28;;;;;;;;;;;9.10;72.10;;;;;;8403741;28;19960;-67
2022/03/20 10:22:32;;;;;;;;;;;9.80;72.40;;;;;;8423334;28;20423;-67
2022/03/20 10:26:33;;;;;;;;;;;10.30;73.80;;;;;;8418064;28;20336;-67
2022/03/20 10:30:35;;;;;;;;;;;10.70;75.00;;;;;;8407046;28;19924;-67
2022/03/20 10:34:48;;;;;;;;;;;10.70;73.20;;;;;;8402797;28;19963;-67
2022/03/20 10:38:50;;;;;;;;;;;10.40;71.80;;;;;;8420512;28;20383;-67
2022/03/20 10:43:27;;;;;;;;;;;9.90;70.40;;;;;;8417611;28;19975;-67
2022/03/20 10:47:29;;;;;;;;;;;9.50;68.70;;;;;;8303164;28;19970;-67
2022/03/20 10:51:37;;;;;;;;;;;9.10;67.40;;;;;;8416235;28;19947;-67
2022/03/20 10:55:39;;;;;;;;;;;8.90;66.80;;;;;;8417680;28;19931;-67
2022/03/20 10:59:41;;;;;;;;;;;8.60;65.60;;;;;;8404146;28;19931;-67
2022/03/20 11:03:43;;;;;;;;;;;8.40;64.60;;;;;;8401288;28;19932;-67
2022/03/20 11:07:44;;;;;;;;;;;8.30;64.40;;;;;;8397539;28;19928;-67
2022/03/20 11:11:48;;;;;;;;;;;8.20;64.10;;;;;;8421499;28;19971;-67
2022/03/20 11:15:49;;;;;;;;;;;8.20;64.00;;;;;;8421718;28;19924;-67
2022/03/20 11:19:56;;;;;;;;;;;8.10;63.80;;;;;;8413769;28;19932;-67
2022/03/20 11:23:58;;;;;;;;;;;8.10;66.50;;;;;;8417816;28;20384;-67
2022/03/20 11:28:01;;;;;;;;;;;7.90;66.60;;;;;;8398993;28;20419;-67
2022/03/20 11:32:03;;;;;;;;;;;7.80;66.20;;;;;;8422640;28;19932;-67
2022/03/20 11:36:05;;;;;;;;;;;7.80;67.30;;;;;;8424150;28;19965;-67
2022/03/20 11:40:13;;;;;;;;;;;7.90;67.00;;;;;;8401525;28;19924;-67
2022/03/20 11:44:20;;;;;;;;;;;8.00;67.70;;;;;;8417395;28;19943;-67
2022/03/20 11:48:22;;;;;;;;;;;8.20;67.60;;;;;;8418164;28;19946;-67
2022/03/20 11:52:43;;;;;;;;;;;8.40;68.20;;;;;;8392597;28;20365;-67
2022/03/20 11:56:45;;;;;;;;;;;8.60;68.50;;;;;;8422146;28;20391;-67
2022/03/20 12:01:04;;;;;;;;;;;8.60;68.50;;;;;;8421195;28;20011;-67
2022/03/20 12:05:17;;;;;;;;;;;8.60;68.10;;;;;;8419275;28;19969;-67
2022/03/20 12:09:28;;;;;;;;;;;8.60;68.40;;;;;;8404459;28;20273;-67
2022/03/20 12:13:44;;;;;;;;;;;8.60;68.10;;;;;;8418710;28;19967;-67
2022/03/20 12:18:01;;;;;;;;;;;8.70;68.30;;;;;;8419906;28;20276;-67
2022/03/20 12:22:07;;;;;;;;;;;8.70;69.80;;;;;;8422929;28;20281;-67
2022/03/20 12:26:24;;;;;;;;;;;8.70;70.60;;;;;;8431223;28;20264;-67
2022/03/20 12:30:29;;;;;;;;;;;8.80;71.30;;;;;;8424700;28;19924;-67
2022/03/20 12:34:31;;;;;;;;;;;8.90;71.10;;;;;;8410103;28;19930;-67
2022/03/20 12:38:35;;;;;;;;;;;9.10;71.00;;;;;;8427079;28;19928;-67
2022/03/20 12:42:40;;;;;;;;;;;9.20;71.80;;;;;;8426201;28;20426;-67
2022/03/20 12:46:42;;;;;;;;;;;9.00;72.90;;;;;;8425625;28;19971;-67
2022/03/20 12:50:48;;;;;;;;;;;9.00;71.50;;;;;;8418211;28;20390;-67
2022/03/20 12:55:07;;;;;;;;;;;9.10;72.10;;;;;;8405276;28;20304;-67
2022/03/20 12:59:19;;;;;;;;;;;9.30;73.50;;;;;;8405102;28;19924;-67
2022/03/20 13:03:21;;;;;;;;;;;9.30;73.50;;;;;;8423028;28;19932;-67
2022/03/20 13:07:24;;;;;;;;;;;9.20;74.10;;;;;;8406082;28;20416;-67
2022/03/20 13:12:03;;;;;;;;;;;9.20;73.50;;;;;;8407971;28;19931;-67
2022/03/20 13:15:58;;;;;;;;;;;9.30;73.50;;;;;;8420555;28;19950;-67
2022/03/20 13:20:14;;;;;;;;;;;9.50;74.10;;;;;;8406326;28;19928;-67
2022/03/20 13:24:25;;;;;;;;;;;9.70;74.60;;;;;;8421661;28;20379;-67
2022/03/20 13:28:29;;;;;;;;;;;9.70;74.30;;;;;;8425130;28;19930;-67
2022/03/20 13:32:31;;;;;;;;;;;9.50;74.10;;;;;;8407348;28;20002;-67
2022/03/20 13:36:35;;;;;;;;;;;9.30;73.20;;;;;;8420170;28;20379;-67
2022/03/20 13:40:37;;;;;;;;;;;9.30;73.70;;;;;;8424973;28;19971;-67
2022/03/20 13:44:39;;;;;;;;;;;9.20;73.60;;;;;;8424725;28;20284;-67
2022/03/20 13:48:41;;;;;;;;;;;9.10;72.90;;;;;;8424253;28;19985;-67
2022/03/20 13:52:43;;;;;;;;;;;9.20;73.80;;;;;;8418802;28;19959;-67
2022/03/20 13:56:49;;;;;;;;;;;9.30;73.30;;;;;;8417083;28;20000;-67
2022/03/20 14:01:00;;;;;;;;;;;9.30;73.60;;;;;;8406614;28;20371;-67
2022/03/20 14:05:08;;;;;;;;;;;9.30;73.70;;;;;;8422360;28;19928;-67
2022/03/20 14:09:11;;;;;;;;;;;9.40;74.10;;;;;;8421393;28;19947;-67
2022/03/20 14:13:35;;;;;;;;;;;9.50;74.90;;;;;;8425380;28;19932;-67
2022/03/20 14:17:40;;;;;;;;;;;9.70;75.30;;;;;;8416434;28;19968;-67
2022/03/20 14:21:53;;;;;;;;;;;9.90;75.50;;;;;;8422492;28;19924;-67
2022/03/20 14:25:55;;;;;;;;;;;10.20;75.30;;;;;;8402218;28;19935;-67
2022/03/20 14:43:12;;;;;;;;;;;13.50;77.90;;;;;;8387625;28;20011;-72
2022/03/20 14:47:17;;;;;;;;;;;13.40;78.10;;;;;;8387386;28;19928;-73
2022/03/20 14:51:18;;;;;;;;;;;12.90;74.00;;;;;;8388291;28;20295;-72
2022/03/20 14:55:20;;;;;;;;;;;12.60;76.00;;;;;;8387282;28;19968;-72
2022/03/20 14:59:21;;;;;;;;;;;12.90;74.40;;;;;;8376505;28;20015;-73
2022/03/20 15:03:23;;;;;;;;;;;13.10;74.70;;;;;;8384148;28;19978;-72
2022/03/20 15:07:26;;;;;;;;;;;13.60;72.90;;;;;;8383238;28;19934;-73
2022/03/20 15:11:28;;;;;;;;;;;14.00;78.50;;;;;;8399518;28;19928;-73
2022/03/20 15:15:30;;;;;;;;;;;14.40;78.30;;;;;;8368612;28;19931;-73
2022/03/20 15:19:31;;;;;;;;;;;14.80;78.30;;;;;;8383756;28;19964;-72
2022/03/20 15:23:34;;;;;;;;;;;15.20;78.40;;;;;;8384005;28;19939;-71
2022/03/20 15:27:36;;;;;;;;;;;15.30;77.60;;;;;;8382653;28;19932;-72
2022/03/20 15:31:44;;;;;;;;;;;15.30;77.70;;;;;;8385207;28;20346;-72
2022/03/20 15:35:46;;;;;;;;;;;15.20;75.20;;;;;;8381933;28;20308;-72
2022/03/20 15:39:48;;;;;;;;;;;15.10;76.30;;;;;;8396396;28;19925;-73
2022/03/20 15:43:50;;;;;;;;;;;14.90;74.20;;;;;;8388687;28;19924;-72
2022/03/20 15:47:52;;;;;;;;;;;14.70;74.30;;;;;;8385946;28;19932;-72
2022/03/20 15:51:56;;;;;;;;;;;14.10;71.30;;;;;;8385496;28;20281;-72
2022/03/20 15:55:58;;;;;;;;;;;13.40;68.40;;;;;;8389549;28;19925;-72
2022/03/20 15:59:59;;;;;;;;;;;12.90;69.30;;;;;;8392203;28;20008;-73
2022/03/20 16:04:03;;;;;;;;;;;12.80;69.40;;;;;;8396197;28;19930;-72
2022/03/20 16:08:05;;;;;;;;;;;12.70;69.20;;;;;;8384596;28;20050;-71
2022/03/20 16:12:07;;;;;;;;;;;12.50;68.30;;;;;;8392313;28;19982;-72
2022/03/20 16:16:09;;;;;;;;;;;12.20;67.70;;;;;;8391811;28;19963;-72
2022/03/20 16:20:11;;;;;;;;;;;11.90;67.00;;;;;;8388064;28;19985;-71
2022/03/20 16:28:33;;;;;;;;;;;11.60;66.20;;;;;;8390030;28;20383;-72
2022/03/20 16:32:36;;;;;;;;;;;11.70;66.60;;;;;;8391309;28;19978;-72
2022/03/20 16:36:38;;;;;;;;;;;11.70;66.40;;;;;;8387402;28;19978;-72
2022/03/20 16:40:40;;;;;;;;;;;11.50;66.30;;;;;;8401837;28;19995;-71
2022/03/20 16:44:43;;;;;;;;;;;11.40;66.20;;;;;;8388468;28;20316;-71
2022/03/20 16:48:45;;;;;;;;;;;11.20;66.20;;;;;;8372651;28;19933;-72
2022/03/20 16:52:46;;;;;;;;;;;11.00;66.20;;;;;;8392487;28;19982;-71
2022/03/20 16:56:48;;;;;;;;;;;10.90;66.40;;;;;;8390446;28;20246;-71
2022/03/20 17:00:50;;;;;;;;;;;10.90;66.10;;;;;;8406637;28;19925;-72
2022/03/20 17:04:51;;;;;;;;;;;10.90;65.60;;;;;;8390814;28;19975;-72
2022/03/20 17:08:53;;;;;;;;;;;10.80;65.60;;;;;;8388058;28;20372;-71
2022/03/20 17:12:55;;;;;;;;;;;10.80;65.60;;;;;;8388823;28;19960;-71
2022/03/20 17:16:57;;;;;;;;;;;10.90;66.00;;;;;;8389205;28;20364;-71
2022/03/20 17:20:58;;;;;;;;;;;11.00;66.20;;;;;;8387126;28;20373;-72
2022/03/20 17:25:00;;;;;;;;;;;11.10;66.70;;;;;;8391299;28;19924;-71
2022/03/20 17:29:02;;;;;;;;;;;11.10;66.50;;;;;;8376034;28;19924;-71
2022/03/20 17:33:05;;;;;;;;;;;10.90;66.00;;;;;;8367718;28;19967;-72
2022/03/20 17:37:07;;;;;;;;;;;10.70;66.70;;;;;;8386460;28;19971;-71
2022/03/20 17:41:08;;;;;;;;;;;10.40;67.00;;;;;;8387197;28;19943;-71
2022/03/20 17:45:10;;;;;;;;;;;10.20;66.60;;;;;;8386189;28;20035;-71
2022/03/20 17:49:11;;;;;;;;;;;10.00;67.60;;;;;;8388429;28;19974;-71
2022/03/20 17:53:14;;;;;;;;;;;9.80;67.30;;;;;;8388058;28;20004;-72
2022/03/20 17:57:16;;;;;;;;;;;9.70;68.00;;;;;;8376965;28;20376;-72
2022/03/20 18:01:18;;;;;;;;;;;9.50;67.80;;;;;;8407648;28;19976;-72
2022/03/20 18:09:40;;;;;;;;;;;9.30;66.40;;;;;;8394853;28;19924;-71
2022/03/20 18:13:42;;;;;;;;;;;9.20;66.50;;;;;;8396318;28;20399;-71
2022/03/20 18:17:44;;;;;;;;;;;9.10;65.40;;;;;;8393383;28;20418;-71
2022/03/20 18:21:46;;;;;;;;;;;9.10;65.70;;;;;;8394816;28;20391;-72
2022/03/20 18:25:48;;;;;;;;;;;9.00;65.30;;;;;;8390078;28;19932;-71
2022/03/20 18:29:50;;;;;;;;;;;9.00;65.80;;;;;;8390678;28;20608;-71
2022/03/20 18:33:51;;;;;;;;;;;8.80;65.70;;;;;;8393403;28;19935;-71
2022/03/20 18:37:54;;;;;;;;;;;8.70;65.00;;;;;;8405412;28;20320;-71
2022/03/20 18:41:56;;;;;;;;;;;8.60;64.70;;;;;;8393215;28;19964;-72
2022/03/20 18:45:58;;;;;;;;;;;8.40;65.30;;;;;;8398798;28;20411;-72
2022/03/20 18:50:00;;;;;;;;;;;8.20;64.70;;;;;;8378332;28;19950;-71
2022/03/20 18:54:01;;;;;;;;;;;7.90;64.90;;;;;;8395286;28;19924;-73
2022/03/20 18:58:04;;;;;;;;;;;7.70;65.20;;;;;;8395151;28;20404;-72
2022/03/20 19:02:08;;;;;;;;;;;7.50;65.40;;;;;;8408878;28;19944;-72
2022/03/20 19:06:10;;;;;;;;;;;7.30;65.50;;;;;;8397355;28;19960;-72
2022/03/20 19:10:13;;;;;;;;;;;7.20;65.90;;;;;;8398332;28;19931;-72
2022/03/20 19:14:15;;;;;;;;;;;7.00;66.10;;;;;;8398090;28;23985;-72
2022/03/20 19:18:18;;;;;;;;;;;6.90;66.10;;;;;;8396821;28;20379;-72
2022/03/20 19:22:21;;;;;;;;;;;6.70;65.90;;;;;;8393654;28;20368;-73
2022/03/20 19:26:23;;;;;;;;;;;6.50;66.20;;;;;;8389494;28;20398;-72
2022/03/20 19:30:25;;;;;;;;;;;6.30;66.50;;;;;;8394923;28;20007;-71
2022/03/20 19:43:08;;;;;;;;;;;6.10;66.90;;;;;;8388743;28;19932;-71
2022/03/20 19:47:09;;;;;;;;;;;6.00;66.80;;;;;;8386413;28;19940;-72
2022/03/20 19:51:12;;;;;;;;;;;5.90;66.90;;;;;;8401877;28;19929;-72
2022/03/20 19:55:14;;;;;;;;;;;5.80;66.90;;;;;;8388765;28;19936;-72
2022/03/20 19:59:15;;;;;;;;;;;5.80;67.00;;;;;;8385247;28;19986;-73
2022/03/20 20:03:19;;;;;;;;;;;5.70;67.10;;;;;;8382424;28;19938;-72
2022/03/20 20:07:23;;;;;;;;;;;5.50;67.00;;;;;;8376805;28;20059;-72
2022/03/20 20:11:26;;;;;;;;;;;5.40;67.10;;;;;;8401846;28;19932;-72
2022/03/20 20:15:27;;;;;;;;;;;5.20;67.50;;;;;;8385988;28;20061;-72
2022/03/20 20:19:29;;;;;;;;;;;5.10;68.10;;;;;;8386515;28;19932;-72
2022/03/20 20:23:31;;;;;;;;;;;5.10;68.50;;;;;;8399541;28;19974;-72
2022/03/20 20:27:33;;;;;;;;;;;5.10;68.20;;;;;;8387194;28;19959;-72
2022/03/20 20:31:36;;;;;;;;;;;5.10;68.20;;;;;;8366231;28;19924;-72
2022/03/20 20:35:37;;;;;;;;;;;5.00;68.30;;;;;;8370932;28;20330;-72
2022/03/20 20:39:39;;;;;;;;;;;4.90;68.50;;;;;;8383344;28;19932;-73
2022/03/20 20:43:41;;;;;;;;;;;4.90;68.60;;;;;;8396451;28;19932;-72
2022/03/20 20:47:43;;;;;;;;;;;4.80;68.50;;;;;;8395003;28;19956;-72
2022/03/20 20:51:49;;;;;;;;;;;4.80;68.60;;;;;;8391307;28;19971;-71
2022/03/20 20:55:51;;;;;;;;;;;4.70;68.50;;;;;;8391933;28;20355;-72
2022/03/20 20:59:52;;;;;;;;;;;4.70;68.60;;;;;;8395580;28;20042;-72
2022/03/20 21:03:54;;;;;;;;;;;4.60;68.50;;;;;;8388682;28;19983;-72
2022/03/20 21:12:16;;;;;;;;;;;4.40;68.40;;;;;;8390031;28;19935;-72
2022/03/20 21:16:18;;;;;;;;;;;4.40;68.50;;;;;;8395716;28;20944;-71
2022/03/20 21:20:20;;;;;;;;;;;4.20;68.60;;;;;;8394130;28;20387;-72
2022/03/20 21:24:21;;;;;;;;;;;4.10;68.70;;;;;;8389294;28;20439;-72
2022/03/20 21:28:23;;;;;;;;;;;4.10;69.00;;;;;;8392337;28;20047;-72
2022/03/20 21:32:29;;;;;;;;;;;4.00;68.80;;;;;;8380724;28;19977;-72
2022/03/20 21:36:32;;;;;;;;;;;3.90;68.70;;;;;;8379175;28;19933;-71
2022/03/20 21:40:34;;;;;;;;;;;3.80;69.00;;;;;;8394932;28;19932;-72
2022/03/20 21:44:37;;;;;;;;;;;3.70;69.20;;;;;;8407396;28;21316;-71
2022/03/20 21:48:39;;;;;;;;;;;3.70;69.30;;;;;;8374721;28;20458;-72
2022/03/20 21:52:43;;;;;;;;;;;3.60;69.40;;;;;;8381440;28;19924;-72
2022/03/20 21:56:45;;;;;;;;;;;3.50;69.30;;;;;;8386060;28;20689;-71
2022/03/20 22:00:47;;;;;;;;;;;3.40;70.00;;;;;;8389694;28;20039;-72
2022/03/20 22:04:49;;;;;;;;;;;3.50;69.80;;;;;;8413550;28;19955;-72
2022/03/20 22:08:51;;;;;;;;;;;3.50;69.70;;;;;;8408592;28;19933;-72
2022/03/20 22:12:53;;;;;;;;;;;3.50;69.60;;;;;;8406170;28;19924;-73
2022/03/20 22:16:54;;;;;;;;;;;3.40;69.40;;;;;;8391984;28;20010;-72
2022/03/20 22:20:56;;;;;;;;;;;3.30;69.60;;;;;;8406422;28;20032;-71
2022/03/20 22:24:58;;;;;;;;;;;3.20;69.50;;;;;;8410006;28;19935;-72
2022/03/20 22:28:59;;;;;;;;;;;3.20;70.00;;;;;;8406193;28;19925;-71
2022/03/20 22:33:01;;;;;;;;;;;3.20;70.70;;;;;;8413083;28;19931;-71
2022/03/20 22:41:35;;;;;;;;;;;3.20;69.80;;;;;;8403113;28;19924;-72
2022/03/20 22:45:38;;;;;;;;;;;3.20;69.90;;;;;;8409150;28;20007;-72
2022/03/20 22:54:00;;;;;;;;;;;3.00;70.10;;;;;;8407030;28;19967;-72
2022/03/20 22:58:01;;;;;;;;;;;3.00;69.90;;;;;;8405344;28;20305;-72
2022/03/20 23:02:03;;;;;;;;;;;2.90;70.00;;;;;;8403865;28;19970;-71
2022/03/20 23:06:06;;;;;;;;;;;2.80;70.00;;;;;;8398915;28;20766;-72
2022/03/20 23:10:08;;;;;;;;;;;2.70;69.90;;;;;;8399434;28;20000;-72
2022/03/20 23:14:10;;;;;;;;;;;2.70;70.50;;;;;;8413880;28;19923;-72
2022/03/20 23:18:12;;;;;;;;;;;2.60;70.60;;;;;;8402480;28;19967;-72
2022/03/20 23:22:14;;;;;;;;;;;2.60;70.60;;;;;;8424424;28;19932;-72
2022/03/20 23:26:16;;;;;;;;;;;2.50;70.80;;;;;;8409381;28;19932;-71
2022/03/20 23:30:19;;;;;;;;;;;2.50;70.50;;;;;;8408006;28;19939;-72
2022/03/20 23:34:21;;;;;;;;;;;2.50;70.70;;;;;;8410692;28;20679;-72
2022/03/20 23:38:22;;;;;;;;;;;2.40;70.50;;;;;;8416380;28;20331;-71
2022/03/20 23:46:45;;;;;;;;;;;2.40;71.80;;;;;;8404048;28;19932;-72
2022/03/20 23:50:46;;;;;;;;;;;2.50;71.10;;;;;;8405957;28;19931;-72
2022/03/20 23:54:48;;;;;;;;;;;2.50;71.00;;;;;;8383493;28;20023;-72
2022/03/20 23:58:50;;;;;;;;;;;2.60;71.10;;;;;;8406335;28;19967;-71
